Time;durP1;ratioP1;P1;durP2;ratioP2;P2;SDS_P1;SDS_P2;PMS_P1;PMS_P2;Temp;Humidity;BMP_temperature;BMP_pressure;BME280_temperature;BME280_humidity;BME280_pressure;Samples;Min_cycle;Max_cycle;Signal;HPM_P1;HPM_P2
2023/03/30 00:01:53;;;;;;;1999.90;999.90;;;13.90;94.30;;;;;;5013532;28;20031;-78
2023/03/30 00:04:21;;;;;;;1999.90;999.90;;;13.90;94.60;;;;;;5013295;28;20046;-77
2023/03/30 00:06:48;;;;;;;1999.90;999.90;;;13.90;94.80;;;;;;5015081;28;20030;-77
2023/03/30 00:09:14;;;;;;;1999.90;999.90;;;14.00;95.10;;;;;;5015401;28;20057;-77
2023/03/30 00:11:39;;;;;;;1999.90;999.90;;;14.10;95.80;;;;;;5014078;28;20468;-77
2023/03/30 00:14:05;;;;;;;1999.90;999.90;;;14.20;95.90;;;;;;5014574;28;20043;-77
2023/03/30 00:16:31;;;;;;;1999.90;999.90;;;14.10;99.20;;;;;;5015431;28;20031;-77
2023/03/30 00:18:56;;;;;;;1999.90;999.90;;;13.70;99.90;;;;;;5014036;28;20415;-78
2023/03/30 00:21:22;;;;;;;1999.90;999.90;;;13.20;99.90;;;;;;5013685;28;20039;-77
2023/03/30 00:23:49;;;;;;;1999.90;999.90;;;12.70;99.90;;;;;;5014580;28;20141;-78
2023/03/30 00:26:15;;;;;;;1999.90;999.90;;;12.40;99.90;;;;;;5015265;28;20038;-78
2023/03/30 00:28:41;;;;;;;1999.90;999.90;;;12.10;99.90;;;;;;5013935;28;20038;-77
2023/03/30 00:31:07;;;;;;;1999.90;999.90;;;11.80;99.90;;;;;;5015611;28;20050;-77
2023/03/30 00:33:32;;;;;;;1999.90;999.90;;;11.60;99.90;;;;;;5017518;28;20089;-78
2023/03/30 00:35:58;;;;;;;1999.90;999.90;;;11.50;99.90;;;;;;5018569;28;20034;-78
2023/03/30 00:38:25;;;;;;;1999.90;999.90;;;11.50;99.90;;;;;;5017119;28;20037;-77
2023/03/30 00:40:55;;;;;;;1999.90;999.90;;;11.40;99.90;;;;;;5016973;28;20026;-77
2023/03/30 00:43:21;;;;;;;1999.90;999.90;;;11.40;99.90;;;;;;5016783;28;20074;-77
2023/03/30 00:45:48;;;;;;;1999.90;999.90;;;11.30;99.90;;;;;;5016029;28;20038;-77
2023/03/30 00:48:25;;;;;;;1999.90;999.90;;;11.30;99.90;;;;;;5017821;28;20484;-77
2023/03/30 00:50:54;;;;;;;1999.90;999.90;;;11.20;99.90;;;;;;5018521;28;20034;-77
2023/03/30 00:53:33;;;;;;;1999.90;999.90;;;11.30;99.90;;;;;;5018193;28;20121;-77
2023/03/30 00:56:01;;;;;;;1999.90;999.90;;;11.30;99.90;;;;;;5017439;28;20038;-77
2023/03/30 00:58:28;;;;;;;1999.90;999.90;;;11.30;99.90;;;;;;5019308;28;20038;-77
2023/03/30 01:00:57;;;;;;;1999.90;999.90;;;11.30;99.90;;;;;;5017185;28;20041;-77
2023/03/30 01:03:36;;;;;;;1999.90;999.90;;;11.30;99.90;;;;;;5016301;28;20038;-77
2023/03/30 01:06:06;;;;;;;1999.90;999.90;;;11.40;99.90;;;;;;5016715;28;20031;-77
2023/03/30 01:08:32;;;;;;;1999.90;999.90;;;11.40;99.90;;;;;;5018325;28;20045;-77
2023/03/30 01:11:00;;;;;;;1999.90;999.90;;;11.50;99.90;;;;;;5018568;28;20034;-77
2023/03/30 01:13:27;;;;;;;1999.90;999.90;;;11.50;99.90;;;;;;5016848;28;20044;-77
2023/03/30 01:16:17;;;;;;;1999.90;999.90;;;11.60;99.90;;;;;;5017639;28;20030;-77
2023/03/30 01:19:31;;;;;;;1999.90;999.90;;;11.70;99.90;;;;;;5018635;28;20038;-77
2023/03/30 01:22:41;;;;;;;1999.90;999.90;;;11.80;99.90;;;;;;5017819;28;20503;-77
2023/03/30 01:25:19;;;;;;;1999.90;999.90;;;11.80;99.90;;;;;;4997083;28;20055;-77
2023/03/30 01:27:56;;;;;;;1999.90;999.90;;;12.00;99.90;;;;;;5017794;28;20166;-77
2023/03/30 01:30:59;;;;;;;1999.90;999.90;;;12.10;99.90;;;;;;5018279;28;20041;-77
2023/03/30 01:33:47;;;;;;;1999.90;999.90;;;12.20;99.90;;;;;;5016197;28;20043;-77
2023/03/30 01:36:18;;;;;;;1999.90;999.90;;;12.30;99.90;;;;;;5015982;28;20030;-77
2023/03/30 01:39:04;;;;;;;1999.90;999.90;;;12.50;99.90;;;;;;5015702;28;20035;-77
2023/03/30 01:41:42;;;;;;;1999.90;999.90;;;12.70;99.90;;;;;;4994609;28;20100;-77
2023/03/30 01:44:12;;;;;;;1999.90;999.90;;;12.90;99.90;;;;;;5015859;28;20038;-77
2023/03/30 01:46:49;;;;;;;1999.90;999.90;;;13.00;99.90;;;;;;5017875;28;20056;-77
2023/03/30 01:49:22;;;;;;;1999.90;999.90;;;13.10;99.90;;;;;;5016405;28;20505;-77
2023/03/30 01:52:00;;;;;;;1999.90;999.90;;;13.50;99.90;;;;;;5017913;28;20110;-77
2023/03/30 01:54:33;;;;;;;1999.90;999.90;;;13.50;99.90;;;;;;5025046;28;20034;-77
2023/03/30 01:57:07;;;;;;;1999.90;999.90;;;13.60;99.90;;;;;;5026062;28;20049;-77
2023/03/30 01:59:48;;;;;;;1999.90;999.90;;;13.70;99.90;;;;;;5017787;28;20092;-77
2023/03/30 02:02:17;;;;;;;1999.90;999.90;;;13.70;99.90;;;;;;5017350;28;20037;-77
2023/03/30 02:04:45;;;;;;;1999.90;999.90;;;13.70;99.90;;;;;;5016974;28;20026;-77
2023/03/30 02:07:16;;;;;;;1999.90;999.90;;;13.80;99.90;;;;;;5015431;28;20042;-77
2023/03/30 02:09:44;;;;;;;1999.90;999.90;;;13.80;99.90;;;;;;5016832;28;20030;-77
2023/03/30 02:12:11;;;;;;;1999.90;999.90;;;13.80;99.90;;;;;;5015671;28;20038;-77
2023/03/30 02:14:39;;;;;;;1999.90;999.90;;;13.80;99.90;;;;;;5016344;28;20057;-77
2023/03/30 02:17:18;;;;;;;1999.90;999.90;;;13.80;99.90;;;;;;5016771;28;20038;-77
2023/03/30 02:19:47;;;;;;;1999.90;999.90;;;13.90;99.90;;;;;;5017120;28;20862;-77
2023/03/30 02:22:14;;;;;;;1999.90;999.90;;;13.90;99.90;;;;;;5016522;28;20031;-77
2023/03/30 02:24:42;;;;;;;1999.90;999.90;;;13.90;99.90;;;;;;5017083;28;20044;-77
2023/03/30 02:27:08;;;;;;;1999.90;999.90;;;13.90;99.90;;;;;;5016980;28;20114;-77
2023/03/30 02:29:38;;;;;;;1999.90;999.90;;;13.90;99.90;;;;;;5016832;28;20089;-76
2023/03/30 02:32:04;;;;;;;1999.90;999.90;;;14.00;99.90;;;;;;5015271;28;20054;-76
2023/03/30 02:34:53;;;;;;;1999.90;999.90;;;13.90;99.90;;;;;;5016464;28;20049;-76
2023/03/30 02:37:31;;;;;;;1999.90;999.90;;;13.80;99.90;;;;;;5015044;28;20039;-77
2023/03/30 02:40:21;;;;;;;1999.90;999.90;;;13.80;99.90;;;;;;5016367;28;20483;-76
2023/03/30 02:43:25;;;;;;;1999.90;999.90;;;13.90;99.90;;;;;;5015048;28;20044;-77
2023/03/30 02:46:01;;;;;;;1999.90;999.90;;;13.90;99.90;;;;;;5015200;28;20030;-77
2023/03/30 02:48:56;;;;;;;1999.90;999.90;;;13.80;99.90;;;;;;5015720;28;20484;-77
2023/03/30 02:51:39;;;;;;;1999.90;999.90;;;13.70;99.90;;;;;;5015205;28;20164;-77
2023/03/30 02:54:11;;;;;;;1999.90;999.90;;;13.80;99.90;;;;;;5014783;28;20038;-77
2023/03/30 02:56:47;;;;;;;1999.90;999.90;;;13.80;99.90;;;;;;5014676;28;20467;-77
2023/03/30 02:59:26;;;;;;;1999.90;999.90;;;13.90;99.90;;;;;;5016295;28;20134;-77
2023/03/30 03:02:00;;;;;;;1999.90;999.90;;;14.20;99.90;;;;;;5018254;28;20041;-76
2023/03/30 03:04:28;;;;;;;1999.90;999.90;;;14.10;99.90;;;;;;5019574;28;20046;-76
2023/03/30 03:06:54;;;;;;;1999.90;999.90;;;14.00;99.90;;;;;;5017518;28;20034;-77
2023/03/30 03:09:23;;;;;;;1999.90;999.90;;;14.10;99.90;;;;;;5019149;28;20330;-76
2023/03/30 03:11:50;;;;;;;1999.90;999.90;;;13.90;99.90;;;;;;5018635;28;20026;-77
2023/03/30 03:14:15;;;;;;;1999.90;999.90;;;13.90;99.90;;;;;;5016717;28;20034;-77
2023/03/30 03:16:41;;;;;;;1999.90;999.90;;;13.90;99.90;;;;;;5017196;28;20034;-77
2023/03/30 03:19:07;;;;;;;1999.90;999.90;;;13.80;99.90;;;;;;5015829;28;20548;-77
2023/03/30 03:21:33;;;;;;;1999.90;999.90;;;13.80;99.90;;;;;;5015244;28;20034;-77
2023/03/30 03:23:58;;;;;;;1999.90;999.90;;;13.90;99.90;;;;;;5015836;28;20046;-77
2023/03/30 03:26:25;;;;;;;1999.90;999.90;;;13.90;99.90;;;;;;5016503;28;20034;-77
2023/03/30 03:28:51;;;;;;;1999.90;999.90;;;13.80;99.90;;;;;;5016154;28;20089;-75
2023/03/30 03:31:17;;;;;;;1999.90;999.90;;;13.70;99.90;;;;;;5015969;28;20423;-76
2023/03/30 03:33:42;;;;;;;1999.90;999.90;;;13.60;99.90;;;;;;5015743;28;20038;-76
2023/03/30 03:36:10;;;;;;;1999.90;999.90;;;13.50;99.90;;;;;;5014227;28;20469;-75
2023/03/30 03:38:36;;;;;;;1999.90;999.90;;;13.50;99.90;;;;;;5015755;28;20404;-76
2023/03/30 03:41:03;;;;;;;1999.90;999.90;;;13.40;99.90;;;;;;5015604;28;20031;-76
2023/03/30 03:43:29;;;;;;;1999.90;999.90;;;13.40;99.90;;;;;;5013881;28;20066;-75
2023/03/30 03:45:54;;;;;;;1999.90;999.90;;;13.30;99.90;;;;;;5013842;28;20452;-75
2023/03/30 03:48:22;;;;;;;1999.90;999.90;;;13.30;99.90;;;;;;5014949;28;20036;-76
2023/03/30 03:50:50;;;;;;;1999.90;999.90;;;13.40;99.90;;;;;;5014858;28;20031;-76
2023/03/30 03:53:16;;;;;;;1999.90;999.90;;;13.40;99.90;;;;;;5013211;28;20038;-76
2023/03/30 03:55:42;;;;;;;1999.90;999.90;;;13.30;99.90;;;;;;5014809;28;20032;-76
2023/03/30 03:58:08;;;;;;;1999.90;999.90;;;13.30;99.90;;;;;;5015371;28;20039;-76
2023/03/30 04:00:33;;;;;;;1999.90;999.90;;;13.30;99.90;;;;;;5023277;28;20030;-76
2023/03/30 04:02:59;;;;;;;1999.90;999.90;;;13.20;99.90;;;;;;5020193;28;20038;-76
2023/03/30 04:05:25;;;;;;;1999.90;999.90;;;13.10;99.90;;;;;;5014742;28;20499;-76
2023/03/30 04:07:52;;;;;;;1999.90;999.90;;;12.80;99.90;;;;;;5014204;28;20034;-76
2023/03/30 04:10:19;;;;;;;1999.90;999.90;;;12.50;99.90;;;;;;5016636;28;20030;-76
2023/03/30 04:12:45;;;;;;;1999.90;999.90;;;12.30;99.90;;;;;;5016261;28;20034;-76
2023/03/30 04:15:11;;;;;;;1999.90;999.90;;;12.10;99.90;;;;;;5017489;28;20026;-76
2023/03/30 04:17:37;;;;;;;1999.90;999.90;;;12.10;99.90;;;;;;5018209;28;20066;-76
2023/03/30 04:20:04;;;;;;;1999.90;999.90;;;12.00;99.90;;;;;;5015947;28;20101;-76
2023/03/30 04:22:32;;;;;;;1999.90;999.90;;;11.90;99.90;;;;;;5015638;28;20187;-76
2023/03/30 04:24:58;;;;;;;1999.90;999.90;;;11.90;99.90;;;;;;5017334;28;20056;-76
2023/03/30 04:27:24;;;;;;;1999.90;999.90;;;11.80;99.90;;;;;;5019035;28;20037;-76
2023/03/30 04:29:51;;;;;;;1999.90;999.90;;;11.80;99.90;;;;;;5017997;28;20044;-76
2023/03/30 04:32:19;;;;;;;1999.90;999.90;;;11.80;99.90;;;;;;5018755;28;20038;-76
2023/03/30 04:34:48;;;;;;;1999.90;999.90;;;11.70;99.90;;;;;;5016922;28;20039;-76
2023/03/30 04:37:17;;;;;;;1999.90;999.90;;;11.70;99.90;;;;;;5016975;28;20044;-76
2023/03/30 04:39:43;;;;;;;1999.90;999.90;;;11.70;99.90;;;;;;5017163;28;20030;-76
2023/03/30 04:42:12;;;;;;;1999.90;999.90;;;11.70;99.90;;;;;;5016944;28;20034;-76
2023/03/30 04:44:39;;;;;;;1999.90;999.90;;;11.70;99.90;;;;;;5019226;28;20034;-76
2023/03/30 04:47:05;;;;;;;1999.90;999.90;;;11.70;99.90;;;;;;5018461;28;20038;-76
2023/03/30 04:49:30;;;;;;;1999.90;999.90;;;11.80;99.90;;;;;;5017214;28;20062;-76
2023/03/30 04:51:56;;;;;;;1999.90;999.90;;;11.80;99.90;;;;;;5016465;28;20050;-76
2023/03/30 04:54:22;;;;;;;1999.90;999.90;;;11.80;99.90;;;;;;5017367;28;20105;-76
2023/03/30 04:56:47;;;;;;;1999.90;999.90;;;11.90;99.90;;;;;;5017711;28;20041;-75
2023/03/30 04:59:13;;;;;;;1999.90;999.90;;;11.90;99.90;;;;;;5017905;28;20845;-76
2023/03/30 05:01:38;;;;;;;1999.90;999.90;;;11.90;99.90;;;;;;5018004;28;20030;-76
2023/03/30 05:04:04;;;;;;;1999.90;999.90;;;11.90;99.90;;;;;;5017272;28;20050;-76
2023/03/30 05:06:29;;;;;;;1999.90;999.90;;;12.00;99.90;;;;;;5018353;28;20109;-76
2023/03/30 05:08:55;;;;;;;1999.90;999.90;;;12.00;99.90;;;;;;5017636;28;20038;-77
2023/03/30 05:11:21;;;;;;;1999.90;999.90;;;12.00;99.90;;;;;;5017718;28;20035;-76
2023/03/30 05:13:50;;;;;;;1999.90;999.90;;;12.00;99.90;;;;;;5015249;28;20058;-76
2023/03/30 05:16:16;;;;;;;1999.90;999.90;;;12.10;99.90;;;;;;5016723;28;20034;-76
2023/03/30 05:18:42;;;;;;;1999.90;999.90;;;12.10;99.90;;;;;;5016696;28;20476;-75
2023/03/30 05:21:08;;;;;;;1999.90;999.90;;;12.10;99.90;;;;;;5016902;28;20026;-75
2023/03/30 05:23:33;;;;;;;1999.90;999.90;;;12.10;99.90;;;;;;5015776;28;20050;-75
2023/03/30 05:25:59;;;;;;;1999.90;999.90;;;12.10;99.90;;;;;;5016483;28;20052;-75
2023/03/30 05:28:24;;;;;;;1999.90;999.90;;;12.10;99.90;;;;;;5016813;28;20038;-76
2023/03/30 05:30:54;;;;;;;1999.90;999.90;;;12.20;99.90;;;;;;5016860;28;20484;-77
2023/03/30 05:33:21;;;;;;;1999.90;999.90;;;12.10;99.90;;;;;;5015636;28;20038;-75
2023/03/30 05:35:46;;;;;;;1999.90;999.90;;;12.20;99.90;;;;;;5017196;28;20511;-74
2023/03/30 05:38:12;;;;;;;1999.90;999.90;;;12.20;99.90;;;;;;5017102;28;20034;-75
2023/03/30 05:40:37;;;;;;;1999.90;999.90;;;12.20;99.90;;;;;;5015859;28;20113;-75
2023/03/30 05:43:03;;;;;;;1999.90;999.90;;;12.20;99.90;;;;;;5014425;28;20064;-75
2023/03/30 05:45:29;;;;;;;1999.90;999.90;;;12.20;99.90;;;;;;5012772;28;20035;-74
2023/03/30 05:47:54;;;;;;;1999.90;999.90;;;12.20;99.90;;;;;;5014609;28;20690;-74
2023/03/30 05:50:20;;;;;;;1999.90;999.90;;;12.20;99.90;;;;;;5014358;28;20036;-75
2023/03/30 05:52:46;;;;;;;1999.90;999.90;;;12.20;99.90;;;;;;5014138;28;20104;-74
2023/03/30 05:55:12;;;;;;;1999.90;999.90;;;12.20;99.90;;;;;;5015221;28;20492;-74
2023/03/30 05:57:37;;;;;;;1999.90;999.90;;;12.20;99.90;;;;;;5015956;28;20079;-74
2023/03/30 06:00:09;;;;;;;1999.90;999.90;;;12.10;99.90;;;;;;5016256;28;20057;-74
2023/03/30 06:02:35;;;;;;;1999.90;999.90;;;12.10;99.90;;;;;;5014881;28;20042;-75
2023/03/30 06:05:01;;;;;;;1999.90;999.90;;;12.10;99.90;;;;;;5016903;28;20041;-75
2023/03/30 06:07:32;;;;;;;1999.90;999.90;;;12.00;99.90;;;;;;5022944;28;20038;-74
2023/03/30 06:09:58;;;;;;;1999.90;999.90;;;12.00;99.90;;;;;;5020609;28;20053;-75
2023/03/30 06:12:25;;;;;;;1999.90;999.90;;;12.10;99.90;;;;;;5017333;28;20034;-78
2023/03/30 06:14:50;;;;;;;1999.90;999.90;;;12.10;99.90;;;;;;5015811;28;20042;-77
2023/03/30 06:17:16;;;;;;;1999.90;999.90;;;12.00;99.90;;;;;;5017670;28;20511;-77
2023/03/30 06:19:42;;;;;;;1999.90;999.90;;;12.00;99.90;;;;;;5016984;28;20034;-77
2023/03/30 06:22:08;;;;;;;1999.90;999.90;;;12.00;99.90;;;;;;5014728;28;20038;-77
2023/03/30 06:24:34;;;;;;;1999.90;999.90;;;12.00;99.90;;;;;;5018783;28;20042;-78
2023/03/30 06:27:00;;;;;;;1999.90;999.90;;;12.00;99.90;;;;;;5018225;28;20066;-77
2023/03/30 06:29:26;;;;;;;1999.90;999.90;;;12.00;99.90;;;;;;5018988;28;20062;-81
2023/03/30 06:31:52;;;;;;;1999.90;999.90;;;12.00;99.90;;;;;;5018078;28;20799;-78
2023/03/30 06:34:17;;;;;;;1999.90;999.90;;;12.00;99.90;;;;;;5018784;28;20036;-77
2023/03/30 06:36:45;;;;;;;1999.90;999.90;;;12.00;99.90;;;;;;5017576;28;20041;-78
2023/03/30 06:39:11;;;;;;;1999.90;999.90;;;11.90;99.90;;;;;;5018111;28;20034;-76
2023/03/30 06:41:36;;;;;;;1999.90;999.90;;;11.90;99.90;;;;;;5016643;28;20777;-77
2023/03/30 06:44:02;;;;;;;1999.90;999.90;;;11.80;99.90;;;;;;5015503;28;20101;-77
2023/03/30 06:46:27;;;;;;;1999.90;999.90;;;11.90;99.90;;;;;;5020791;28;20476;-78
2023/03/30 06:48:53;;;;;;;1999.90;999.90;;;11.90;99.90;;;;;;5018969;28;20041;-78
2023/03/30 06:51:20;;;;;;;1999.90;999.90;;;11.80;99.90;;;;;;5020115;28;20033;-78
2023/03/30 06:53:45;;;;;;;1999.90;999.90;;;11.90;99.90;;;;;;5020418;28;20049;-78
2023/03/30 06:56:11;;;;;;;1999.90;999.90;;;11.90;99.90;;;;;;5018288;28;20066;-78
2023/03/30 06:58:37;;;;;;;1999.90;999.90;;;11.90;99.90;;;;;;5018146;28;20031;-77
2023/03/30 07:01:14;;;;;;;1999.90;999.90;;;11.90;99.90;;;;;;5018644;28;20034;-78
2023/03/30 07:03:40;;;;;;;1999.90;999.90;;;12.00;99.90;;;;;;5019086;28;20022;-77
2023/03/30 07:06:07;;;;;;;1999.90;999.90;;;11.90;99.90;;;;;;5021998;28;20042;-77
2023/03/30 07:08:34;;;;;;;1999.90;999.90;;;11.90;99.90;;;;;;5019394;28;20034;-77
2023/03/30 07:11:00;;;;;;;1999.90;999.90;;;11.80;99.90;;;;;;5020179;28;20033;-78
2023/03/30 07:13:26;;;;;;;1999.90;999.90;;;11.90;99.90;;;;;;5020269;28;20058;-78
2023/03/30 07:15:52;;;;;;;1999.90;999.90;;;11.80;99.90;;;;;;5020948;28;20110;-78
2023/03/30 07:18:18;;;;;;;1999.90;999.90;;;11.80;99.90;;;;;;5018797;28;20121;-78
2023/03/30 07:20:44;;;;;;;1999.90;999.90;;;11.90;99.90;;;;;;5022359;28;20039;-78
2023/03/30 07:23:11;;;;;;;1999.90;999.90;;;11.90;99.90;;;;;;5019845;28;20420;-78
2023/03/30 07:25:37;;;;;;;1999.90;999.90;;;11.90;99.90;;;;;;5021356;28;20065;-78
2023/03/30 07:28:06;;;;;;;1999.90;999.90;;;11.90;99.90;;;;;;5019816;28;20119;-77
2023/03/30 07:30:33;;;;;;;1999.90;999.90;;;11.90;99.90;;;;;;5020040;28;20096;-78
2023/03/30 07:32:58;;;;;;;1999.90;999.90;;;11.90;99.90;;;;;;5019656;28;20046;-78
2023/03/30 07:35:25;;;;;;;1999.90;999.90;;;11.90;99.90;;;;;;5024624;28;20110;-78
2023/03/30 07:37:50;;;;;;;1999.90;999.90;;;11.90;99.90;;;;;;5024841;28;20041;-78
2023/03/30 07:40:16;;;;;;;1999.90;999.90;;;11.90;99.90;;;;;;5023319;28;20034;-78
2023/03/30 07:42:42;;;;;;;1999.90;999.90;;;11.80;99.90;;;;;;5024929;28;20039;-78
2023/03/30 07:45:08;;;;;;;1999.90;999.90;;;11.80;99.90;;;;;;5021756;28;20054;-78
2023/03/30 07:47:35;;;;;;;1999.90;999.90;;;11.80;99.90;;;;;;5008580;28;20042;-78
2023/03/30 07:50:00;;;;;;;1999.90;999.90;;;11.80;99.90;;;;;;5021926;28;20042;-77
2023/03/30 07:52:26;;;;;;;1999.90;999.90;;;11.80;99.90;;;;;;4999571;28;20074;-78
2023/03/30 07:54:53;;;;;;;1999.90;999.90;;;11.90;99.90;;;;;;5014478;28;20094;-78
2023/03/30 07:57:19;;;;;;;1999.90;999.90;;;12.00;99.90;;;;;;5006332;28;20033;-78
2023/03/30 07:59:45;;;;;;;1999.90;999.90;;;12.00;99.90;;;;;;5019364;28;20874;-78
2023/03/30 08:02:13;;;;;;;1999.90;999.90;;;12.00;99.90;;;;;;5017100;28;20089;-78
2023/03/30 08:04:39;;;;;;;1999.90;999.90;;;12.00;99.90;;;;;;5018741;28;20038;-78
2023/03/30 08:07:04;;;;;;;1999.90;999.90;;;12.00;99.90;;;;;;5019045;28;20043;-77
2023/03/30 08:09:30;;;;;;;1999.90;999.90;;;12.00;99.90;;;;;;5018852;28;20894;-77
2023/03/30 08:11:56;;;;;;;1999.90;999.90;;;12.00;99.90;;;;;;5020535;28;20035;-77
2023/03/30 08:14:22;;;;;;;1999.90;999.90;;;11.90;99.90;;;;;;5038211;28;20052;-76
2023/03/30 08:16:48;;;;;;;1999.90;999.90;;;11.90;99.90;;;;;;5030394;28;20519;-77
2023/03/30 08:19:14;;;;;;;1999.90;999.90;;;11.90;99.90;;;;;;5019339;28;20040;-81
2023/03/30 08:21:39;;;;;;;1999.90;999.90;;;12.00;99.90;;;;;;5019594;28;20496;-77
2023/03/30 08:24:06;;;;;;;1999.90;999.90;;;12.10;99.90;;;;;;5016473;28;20436;-77
2023/03/30 08:26:32;;;;;;;1999.90;999.90;;;12.10;99.90;;;;;;5017616;28;20085;-78
2023/03/30 08:28:58;;;;;;;1999.90;999.90;;;12.10;99.90;;;;;;5016970;28;20089;-77
2023/03/30 08:31:23;;;;;;;1999.90;999.90;;;12.00;99.90;;;;;;5016169;28;20069;-76
2023/03/30 08:33:49;;;;;;;1999.90;999.90;;;12.00;99.90;;;;;;5016617;28;20049;-76
2023/03/30 08:36:15;;;;;;;1999.90;999.90;;;12.00;99.90;;;;;;5016241;28;20521;-77
2023/03/30 08:38:41;;;;;;;1999.90;999.90;;;11.90;99.90;;;;;;5017198;28;20042;-76
2023/03/30 08:41:38;;;;;;;1999.90;999.90;;;11.90;99.90;;;;;;5017017;28;20101;-76
2023/03/30 08:44:27;;;;;;;1999.90;999.90;;;11.90;99.90;;;;;;5003239;28;20528;-75
2023/03/30 08:46:53;;;;;;;1999.90;999.90;;;11.90;99.90;;;;;;5015678;28;20038;-75
2023/03/30 08:49:20;;;;;;;1999.90;999.90;;;11.90;99.90;;;;;;5017170;28;20034;-76
2023/03/30 08:51:49;;;;;;;1999.90;999.90;;;12.00;99.90;;;;;;5016848;28;20030;-76
2023/03/30 08:54:17;;;;;;;1999.90;999.90;;;12.00;99.90;;;;;;5017068;28;20042;-75
2023/03/30 08:57:08;;;;;;;1999.90;999.90;;;12.00;99.90;;;;;;5018592;28;20030;-76
2023/03/30 09:00:18;;;;;;;1999.90;999.90;;;12.00;99.90;;;;;;5016151;28;20036;-76
2023/03/30 09:02:48;;;;;;;1999.90;999.90;;;12.00;99.90;;;;;;5015800;28;20069;-75
2023/03/30 09:05:30;;;;;;;1999.90;999.90;;;12.00;99.90;;;;;;5016389;28;20027;-74
2023/03/30 09:08:20;;;;;;;1999.90;999.90;;;12.00;99.90;;;;;;5016739;28;20840;-75
2023/03/30 09:11:10;;;;;;;1999.90;999.90;;;11.90;99.90;;;;;;5019175;28;20026;-75
2023/03/30 09:13:38;;;;;;;1999.90;999.90;;;12.10;99.90;;;;;;5018390;28;20542;-77
2023/03/30 09:16:38;;;;;;;1999.90;999.90;;;12.10;99.90;;;;;;5016117;28;20039;-75
2023/03/30 09:19:07;;;;;;;1999.90;999.90;;;12.10;99.90;;;;;;5016699;28;20515;-75
2023/03/30 09:21:32;;;;;;;1999.90;999.90;;;12.30;99.90;;;;;;5016687;28;20031;-75
2023/03/30 09:24:05;;;;;;;1999.90;999.90;;;12.50;99.90;;;;;;5015551;28;20050;-75
2023/03/30 09:26:40;;;;;;;1999.90;999.90;;;12.60;99.90;;;;;;5015037;28;20077;-75
2023/03/30 09:29:16;;;;;;;1999.90;999.90;;;12.70;99.90;;;;;;5016156;28;20033;-75
2023/03/30 09:31:54;;;;;;;1999.90;999.90;;;12.70;99.90;;;;;;5016592;28;20026;-75
2023/03/30 09:34:31;;;;;;;1999.90;999.90;;;12.70;99.90;;;;;;5016087;28;20180;-75
2023/03/30 09:37:01;;;;;;;1999.90;999.90;;;12.70;99.90;;;;;;5016486;28;20579;-76
2023/03/30 09:39:29;;;;;;;1999.90;999.90;;;12.70;99.90;;;;;;5014859;28;20538;-75
2023/03/30 09:42:17;;;;;;;1999.90;999.90;;;12.60;99.90;;;;;;5016192;28;20096;-75
2023/03/30 09:44:48;;;;;;;1999.90;999.90;;;12.70;99.90;;;;;;5016072;28;20042;-75
2023/03/30 09:47:25;;;;;;;1999.90;999.90;;;12.80;99.90;;;;;;5014923;28;20031;-76
2023/03/30 09:49:55;;;;;;;1999.90;999.90;;;12.80;99.90;;;;;;5016119;28;20126;-76
2023/03/30 09:52:24;;;;;;;1999.90;999.90;;;12.70;99.90;;;;;;5015767;28;20468;-76
2023/03/30 09:54:50;;;;;;;1999.90;999.90;;;12.60;99.90;;;;;;5015718;28;20520;-75
2023/03/30 09:57:30;;;;;;;1999.90;999.90;;;12.60;99.90;;;;;;5015996;28;20035;-76
2023/03/30 09:59:57;;;;;;;1999.90;999.90;;;12.60;99.90;;;;;;5016064;28;20042;-77
2023/03/30 10:02:26;;;;;;;1999.90;999.90;;;12.50;99.90;;;;;;5015681;28;20026;-75
2023/03/30 10:04:52;;;;;;;1999.90;999.90;;;12.50;99.90;;;;;;5014660;28;20118;-75
2023/03/30 10:07:38;;;;;;;1999.90;999.90;;;12.50;99.90;;;;;;5015301;28;20040;-75
2023/03/30 10:10:35;;;;;;;1999.90;999.90;;;12.50;99.90;;;;;;5015859;28;20035;-75
2023/03/30 10:13:18;;;;;;;1999.90;999.90;;;12.40;99.90;;;;;;5015679;28;20472;-75
2023/03/30 10:15:47;;;;;;;1999.90;999.90;;;12.40;99.90;;;;;;5015500;28;20030;-75
2023/03/30 10:18:31;;;;;;;1999.90;999.90;;;12.40;99.90;;;;;;5015616;28;20034;-75
2023/03/30 10:21:06;;;;;;;1999.90;999.90;;;12.40;99.90;;;;;;5015745;28;20034;-75
2023/03/30 10:23:38;;;;;;;1999.90;999.90;;;12.40;99.90;;;;;;5034752;28;20089;-75
2023/03/30 10:26:07;;;;;;;1999.90;999.90;;;12.40;99.90;;;;;;5023576;28;20030;-76
2023/03/30 10:28:35;;;;;;;1999.90;999.90;;;12.30;99.90;;;;;;5015493;28;20038;-76
2023/03/30 10:31:06;;;;;;;1999.90;999.90;;;12.30;99.90;;;;;;5015709;28;20117;-78
2023/03/30 10:33:40;;;;;;;1999.90;999.90;;;12.50;99.90;;;;;;5015204;28;20578;-76
2023/03/30 10:36:06;;;;;;;1999.90;999.90;;;12.70;99.90;;;;;;5015211;28;20045;-77
2023/03/30 10:38:33;;;;;;;1999.90;999.90;;;12.90;99.90;;;;;;5015248;28;20062;-76
2023/03/30 10:41:15;;;;;;;1999.90;999.90;;;13.00;99.90;;;;;;5015189;28;20511;-76
2023/03/30 10:43:43;;;;;;;1999.90;999.90;;;12.90;99.90;;;;;;5015055;28;20042;-75
2023/03/30 10:46:18;;;;;;;1999.90;999.90;;;12.90;99.90;;;;;;5014826;28;20559;-76
2023/03/30 10:49:06;;;;;;;1999.90;999.90;;;12.90;99.90;;;;;;5013659;28;20042;-76
2023/03/30 10:51:40;;;;;;;1999.90;999.90;;;12.90;99.90;;;;;;5015177;28;20034;-77
2023/03/30 10:54:28;;;;;;;1999.90;999.90;;;12.90;99.90;;;;;;5014633;28;20026;-76
2023/03/30 10:56:59;;;;;;;1999.90;999.90;;;13.20;99.90;;;;;;5014842;28;20479;-76
2023/03/30 10:59:25;;;;;;;1999.90;999.90;;;13.60;99.90;;;;;;5015325;28;20512;-75
2023/03/30 11:02:17;;;;;;;1999.90;999.90;;;14.00;99.90;;;;;;5013454;28;20034;-76
2023/03/30 11:04:57;;;;;;;1999.90;999.90;;;14.30;99.90;;;;;;5014491;28;20061;-77
2023/03/30 11:07:47;;;;;;;1999.90;999.90;;;14.40;99.90;;;;;;5015035;28;20504;-76
2023/03/30 11:10:18;;;;;;;1999.90;999.90;;;14.90;99.90;;;;;;5014828;28;20038;-76
2023/03/30 11:12:50;;;;;;;1999.90;999.90;;;15.20;99.90;;;;;;5014800;28;20088;-76
2023/03/30 11:15:37;;;;;;;1999.90;999.90;;;15.30;99.90;;;;;;5012944;28;20092;-76
2023/03/30 11:18:31;;;;;;;1999.90;999.90;;;15.30;99.90;;;;;;5014447;28;20061;-76
2023/03/30 11:21:04;;;;;;;1999.90;999.90;;;15.70;99.90;;;;;;5012498;28;20051;-76
2023/03/30 11:23:43;;;;;;;1999.90;999.90;;;15.60;99.90;;;;;;5013493;28;20049;-76
2023/03/30 11:26:20;;;;;;;1999.90;999.90;;;15.30;99.90;;;;;;5014852;28;20085;-76
2023/03/30 11:29:01;;;;;;;1999.90;999.90;;;15.30;99.90;;;;;;5014836;28;20534;-76
2023/03/30 11:31:32;;;;;;;1999.90;999.90;;;15.10;99.90;;;;;;5014873;28;20089;-76
2023/03/30 11:34:10;;;;;;;1999.90;999.90;;;14.80;99.90;;;;;;5014073;28;20035;-76
2023/03/30 11:36:47;;;;;;;1999.90;999.90;;;14.70;99.90;;;;;;5014636;28;20116;-76
2023/03/30 11:39:15;;;;;;;1999.90;999.90;;;14.60;99.90;;;;;;5014650;28;20038;-76
2023/03/30 11:41:51;;;;;;;1999.90;999.90;;;14.50;99.90;;;;;;5014619;28;20042;-76
2023/03/30 11:44:17;;;;;;;1999.90;999.90;;;14.50;99.90;;;;;;5013684;28;20122;-76
2023/03/30 11:46:59;;;;;;;1999.90;999.90;;;14.40;99.90;;;;;;5014617;28;20117;-76
2023/03/30 11:49:49;;;;;;;1999.90;999.90;;;14.40;99.90;;;;;;5014147;28;20117;-76
2023/03/30 11:52:26;;;;;;;1999.90;999.90;;;14.50;99.90;;;;;;5014312;28;20534;-76
2023/03/30 11:55:24;;;;;;;1999.90;999.90;;;14.40;99.90;;;;;;5014053;28;20026;-76
2023/03/30 11:58:00;;;;;;;1999.90;999.90;;;14.70;99.90;;;;;;5014242;28;20488;-76
2023/03/30 12:00:25;;;;;;;1999.90;999.90;;;14.90;99.90;;;;;;5013533;28;20894;-76
2023/03/30 12:03:08;;;;;;;1999.90;999.90;;;15.00;99.90;;;;;;5012519;28;20121;-76
2023/03/30 12:05:43;;;;;;;1999.90;999.90;;;15.10;99.90;;;;;;5014363;28;20105;-76
2023/03/30 12:08:11;;;;;;;1999.90;999.90;;;15.30;99.90;;;;;;5014270;28;20504;-76
2023/03/30 12:10:41;;;;;;;1999.90;999.90;;;15.50;99.90;;;;;;5014419;28;20085;-76
2023/03/30 12:13:17;;;;;;;1999.90;999.90;;;15.50;99.90;;;;;;5014507;28;20117;-76
2023/03/30 12:15:47;;;;;;;1999.90;999.90;;;15.50;99.90;;;;;;5014188;28;20026;-76
2023/03/30 12:18:38;;;;;;;1999.90;999.90;;;15.60;99.90;;;;;;5014658;28;20034;-76